Time;durP1;ratioP1;P1;durP2;ratioP2;P2;SDS_P1;SDS_P2;PMS_P1;PMS_P2;Temp;Humidity;BMP_temperature;BMP_pressure;BME280_temperature;BME280_humidity;BME280_pressure;Samples;Min_cycle;Max_cycle;Signal;HPM_P1;HPM_P2
2022/10/19 00:01:44;;;;;;;11.53;4.00;;;;;;;6.41;100.00;100411.16;1770194;81;21022;-77
2022/10/19 00:04:11;;;;;;;10.70;5.07;;;;;;;6.40;100.00;100407.27;1770173;80;21058;-77
2022/10/19 00:06:38;;;;;;;7.93;4.10;;;;;;;6.41;100.00;100403.10;1770271;81;21514;-77
2022/10/19 00:09:11;;;;;;;10.77;4.30;;;;;;;6.43;100.00;100396.25;1770259;81;21050;-77
2022/10/19 00:11:40;;;;;;;10.77;4.47;;;;;;;6.42;100.00;100384.64;1670425;84;21063;-78
2022/10/19 00:14:16;;;;;;;7.77;4.30;;;;;;;6.44;100.00;100385.84;1670271;86;21030;-77
2022/10/19 00:16:44;;;;;;;9.33;4.60;;;;;;;6.41;100.00;100383.42;1675955;86;21136;-77
2022/10/19 00:19:18;;;;;;;11.03;3.80;;;;;;;6.39;100.00;100376.00;1656818;86;21121;-77
2022/10/19 00:21:45;;;;;;;7.83;3.90;;;;;;;6.37;100.00;100367.23;1639821;87;21057;-76
2022/10/19 00:24:12;;;;;;;6.80;3.57;;;;;;;6.36;100.00;100362.87;1642439;87;21076;-78
2022/10/19 00:26:41;;;;;;;9.50;3.97;;;;;;;6.35;100.00;100359.31;1642570;87;21571;-77
2022/10/19 00:29:07;;;;;;;7.77;3.53;;;;;;;6.31;100.00;100353.86;1642364;87;21049;-76
2022/10/19 00:31:35;;;;;;;8.10;3.87;;;;;;;6.28;100.00;100348.75;1642519;87;21140;-77
2022/10/19 00:34:01;;;;;;;7.10;3.80;;;;;;;6.24;100.00;100340.12;1642808;87;21041;-77
2022/10/19 00:36:33;;;;;;;10.37;3.93;;;;;;;6.22;100.00;100342.09;1642708;87;21061;-78
2022/10/19 00:39:00;;;;;;;9.47;4.23;;;;;;;6.19;100.00;100332.12;1642711;87;21049;-77
2022/10/19 00:41:29;;;;;;;10.67;4.73;;;;;;;6.15;100.00;100336.91;1642812;87;21013;-76
2022/10/19 00:44:14;;;;;;;13.13;5.40;;;;;;;6.14;100.00;100327.14;1642732;87;21049;-78
2022/10/19 00:46:43;;;;;;;11.13;4.33;;;;;;;6.12;100.00;100318.37;1622087;88;21031;-78
2022/10/19 00:49:17;;;;;;;10.77;4.33;;;;;;;6.10;100.00;100312.30;1580421;91;21039;-76
2022/10/19 00:51:47;;;;;;;13.67;4.53;;;;;;;6.09;100.00;100298.51;1611782;89;21056;-77
2022/10/19 00:54:14;;;;;;;13.33;4.67;;;;;;;6.08;100.00;100304.87;1612133;89;21061;-76
2022/10/19 00:56:43;;;;;;;11.13;5.10;;;;;;;6.07;100.00;100297.80;1591095;89;21070;-76
2022/10/19 00:59:11;;;;;;;10.97;4.33;;;;;;;6.07;100.00;100290.62;1612444;88;21029;-77
2022/10/19 01:01:37;;;;;;;10.13;4.23;;;;;;;6.07;100.00;100283.91;1613497;89;21040;-77
2022/10/19 01:04:04;;;;;;;12.87;4.83;;;;;;;6.07;100.00;100296.45;1613495;89;21554;-77
2022/10/19 01:06:32;;;;;;;14.20;4.83;;;;;;;6.06;100.00;100292.93;1598702;89;21118;-77
2022/10/19 01:08:58;;;;;;;12.80;4.90;;;;;;;6.01;100.00;100284.43;1606942;88;21089;-76
2022/10/19 01:12:04;;;;;;;11.67;4.73;;;;;;;5.99;100.00;100289.59;1630289;87;21010;-77
2022/10/19 01:14:39;;;;;;;9.77;4.07;;;;;;;5.97;100.00;100289.72;1687023;85;21081;-76
2022/10/19 01:17:44;;;;;;;10.10;3.97;;;;;;;5.94;100.00;100283.74;1687165;85;21010;-76
2022/10/19 01:20:42;;;;;;;11.70;4.05;;;;;;;5.91;100.00;100278.14;1703807;84;21054;-77
2022/10/19 01:23:47;;;;;;;10.33;4.00;;;;;;;5.89;100.00;100272.90;1704047;84;21066;-76
2022/10/19 01:26:45;;;;;;;6.97;4.03;;;;;;;5.85;100.00;100275.51;1630729;87;21105;-76
2022/10/19 01:29:41;;;;;;;11.73;4.33;;;;;;;5.82;100.00;100274.42;1630865;88;21049;-77
2022/10/19 01:32:37;;;;;;;10.37;4.40;;;;;;;5.77;100.00;100261.94;1630785;88;21076;-78
2022/10/19 01:35:23;;;;;;;8.67;4.47;;;;;;;5.76;100.00;100258.04;1609898;88;21195;-77
2022/10/19 01:38:09;;;;;;;7.43;4.13;;;;;;;5.73;100.00;100254.27;1601739;89;21517;-77
2022/10/19 01:41:02;;;;;;;7.23;3.93;;;;;;;5.72;100.00;100242.70;1553357;92;21091;-76
2022/10/19 01:43:46;;;;;;;13.50;4.33;;;;;;;5.71;100.00;100243.17;1554127;92;21046;-78
2022/10/19 01:46:17;;;;;;;11.57;3.83;;;;;;;5.73;100.00;100246.23;1509336;95;21145;-77
2022/10/19 01:49:01;;;;;;;10.17;4.50;;;;;;;5.73;100.00;100241.70;1488207;96;21130;-76
2022/10/19 01:51:31;;;;;;;7.33;3.67;;;;;;;5.74;100.00;100238.05;1479644;96;21151;-76
2022/10/19 01:54:01;;;;;;;7.60;4.47;;;;;;;5.73;100.00;100240.86;1477413;97;21133;-77
2022/10/19 01:56:29;;;;;;;9.43;4.43;;;;;;;5.69;100.00;100240.28;1490500;96;21121;-77
2022/10/19 01:58:57;;;;;;;10.67;4.37;;;;;;;5.64;100.00;100236.65;1491925;96;21642;-76
2022/10/19 02:01:26;;;;;;;7.53;3.87;;;;;;;5.61;100.00;100232.05;1524200;94;21090;-76
2022/10/19 02:03:54;;;;;;;6.40;3.50;;;;;;;5.57;100.00;100227.94;1525173;94;21047;-77
2022/10/19 02:06:21;;;;;;;9.33;4.20;;;;;;;5.54;100.00;100226.36;1486992;94;21150;-78
2022/10/19 02:08:51;;;;;;;9.30;4.00;;;;;;;5.53;100.00;100223.84;1512098;94;21087;-77
2022/10/19 02:11:18;;;;;;;11.03;4.20;;;;;;;5.49;100.00;100220.08;1551541;89;21618;-76
2022/10/19 02:13:45;;;;;;;8.20;4.47;;;;;;;5.48;100.00;100219.70;1599352;89;21044;-76
2022/10/19 02:16:17;;;;;;;8.53;4.30;;;;;;;5.48;100.00;100217.52;1604064;89;21059;-76
2022/10/19 02:18:48;;;;;;;11.22;4.47;;;;;;;5.46;100.00;100212.29;1601737;88;21101;-75
2022/10/19 02:21:15;;;;;;;7.97;4.07;;;;;;;5.44;100.00;100213.42;1601099;89;21055;-76
2022/10/19 02:23:42;;;;;;;11.77;4.73;;;;;;;5.42;100.00;100214.89;1622894;88;21082;-78
2022/10/19 02:26:09;;;;;;;9.43;4.50;;;;;;;5.40;100.00;100213.30;1658007;86;21055;-76
2022/10/19 02:28:36;;;;;;;11.10;4.63;;;;;;;5.38;100.00;100205.39;1657387;86;21091;-77
2022/10/19 02:31:03;;;;;;;8.73;4.13;;;;;;;5.37;100.00;100198.34;1657585;86;21079;-76
2022/10/19 02:33:30;;;;;;;13.53;4.37;;;;;;;5.38;100.00;100191.98;1657806;86;21035;-77
2022/10/19 02:35:57;;;;;;;6.90;4.23;;;;;;;5.39;100.00;100194.20;1657809;86;21573;-77
2022/10/19 02:38:25;;;;;;;11.33;4.50;;;;;;;5.41;100.00;100184.17;1657642;86;21081;-76
2022/10/19 02:41:18;;;;;;;11.30;4.80;;;;;;;5.41;100.00;100185.02;1658156;86;21028;-76
2022/10/19 02:43:48;;;;;;;9.20;4.12;;;;;;;5.41;100.00;100176.13;1696860;82;21019;-76
2022/10/19 02:46:40;;;;;;;10.10;4.70;;;;;;;5.41;100.00;100172.11;1743903;82;21511;-76
2022/10/19 02:49:06;;;;;;;9.43;4.20;;;;;;;5.37;100.00;100162.14;1743974;82;20998;-78
2022/10/19 02:51:36;;;;;;;13.43;4.90;;;;;;;5.33;100.00;100173.63;1744007;82;20995;-76
2022/10/19 02:54:03;;;;;;;11.63;4.80;;;;;;;5.30;100.00;100165.84;1743852;82;21030;-76
2022/10/19 02:56:30;;;;;;;8.60;4.37;;;;;;;5.26;100.00;100159.56;1743978;82;21468;-77
2022/10/19 02:58:57;;;;;;;6.27;3.70;;;;;;;5.24;100.00;100154.80;1760161;80;21469;-77
2022/10/19 03:01:24;;;;;;;7.17;4.10;;;;;;;5.22;100.00;100152.75;1779348;80;21059;-78
2022/10/19 03:03:51;;;;;;;10.50;4.30;;;;;;;5.22;100.00;100152.75;1779549;80;20984;-78
2022/10/19 03:06:17;;;;;;;11.93;4.63;;;;;;;5.20;100.00;100144.84;1779030;80;21508;-77
2022/10/19 03:08:44;;;;;;;10.57;4.37;;;;;;;5.20;100.00;100140.81;1779912;80;21513;-77
2022/10/19 03:11:11;;;;;;;11.57;4.57;;;;;;;5.18;100.00;100133.91;1779829;80;21496;-76
2022/10/19 03:13:38;;;;;;;11.17;4.80;;;;;;;5.15;100.00;100130.98;1779887;80;21539;-77
2022/10/19 03:16:10;;;;;;;7.97;3.93;;;;;;;5.12;100.00;100121.39;1691492;82;21054;-76
2022/10/19 03:18:38;;;;;;;10.48;4.42;;;;;;;5.10;100.00;100118.51;1743622;82;20993;-76
2022/10/19 03:21:07;;;;;;;12.50;4.33;;;;;;;5.09;100.00;100109.59;1743537;82;21046;-76
2022/10/19 03:23:34;;;;;;;8.10;3.67;;;;;;;5.11;100.00;100112.14;1779478;80;20983;-76
2022/10/19 03:26:01;;;;;;;9.73;4.20;;;;;;;5.10;100.00;100109.13;1743655;82;21010;-77
2022/10/19 03:28:28;;;;;;;11.53;4.93;;;;;;;5.08;100.00;100101.21;1743756;82;21054;-76
2022/10/19 03:30:56;;;;;;;13.60;5.03;;;;;;;5.07;100.00;100095.98;1780183;80;20999;-77
2022/10/19 03:33:23;;;;;;;9.73;5.20;;;;;;;5.06;100.00;100095.61;1779436;80;21078;-77
2022/10/19 03:35:52;;;;;;;11.10;5.20;;;;;;;5.05;100.00;100091.25;1779033;80;21564;-77
2022/10/19 03:38:19;;;;;;;11.17;5.57;;;;;;;5.02;100.00;100084.81;1778115;80;21050;-78
2022/10/19 03:40:47;;;;;;;10.93;5.37;;;;;;;4.99;100.00;100083.23;1779393;80;20999;-77
2022/10/19 03:43:14;;;;;;;9.77;4.77;;;;;;;4.95;100.00;100081.81;1779467;80;21038;-77
2022/10/19 03:45:47;;;;;;;7.13;4.10;;;;;;;4.95;100.00;100069.75;1779189;80;20975;-77
2022/10/19 03:48:13;;;;;;;7.83;4.45;;;;;;;4.95;100.00;100069.25;1741067;82;20982;-77
2022/10/19 03:50:40;;;;;;;8.27;4.20;;;;;;;4.94;100.00;100063.55;1744027;82;20999;-78
2022/10/19 03:53:07;;;;;;;7.00;4.00;;;;;;;4.91;100.00;100054.44;1779745;79;21019;-76
2022/10/19 03:55:34;;;;;;;7.50;4.20;;;;;;;4.90;100.00;100055.91;1779324;80;20999;-77
2022/10/19 03:58:01;;;;;;;6.70;3.93;;;;;;;4.88;100.00;100048.00;1779515;80;21485;-77
2022/10/19 04:00:28;;;;;;;9.27;4.20;;;;;;;4.87;100.00;100042.77;1779808;80;20987;-77
2022/10/19 04:02:54;;;;;;;7.20;4.07;;;;;;;4.85;100.00;100044.74;1780187;80;21086;-77
2022/10/19 04:05:21;;;;;;;12.47;4.87;;;;;;;4.81;100.00;100028.09;1743662;82;21016;-77
2022/10/19 04:07:48;;;;;;;10.83;4.90;;;;;;;4.80;100.00;100026.87;1744028;82;20982;-77
2022/10/19 04:10:14;;;;;;;8.27;4.27;;;;;;;4.79;100.00;100019.34;1744027;82;21010;-77
2022/10/19 04:12:42;;;;;;;10.57;4.87;;;;;;;4.80;100.00;100011.67;1743915;82;21026;-76
2022/10/19 04:15:11;;;;;;;9.30;4.37;;;;;;;4.81;100.00;100010.67;1779295;79;21039;-78
2022/10/19 04:17:38;;;;;;;10.57;3.87;;;;;;;4.82;100.00;100008.86;1779173;80;20992;-76
2022/10/19 04:20:08;;;;;;;9.83;4.37;;;;;;;4.83;100.00;99996.64;1779268;80;21059;-77
2022/10/19 04:22:36;;;;;;;11.60;4.80;;;;;;;4.86;100.00;99995.05;1779058;80;21501;-77
2022/10/19 04:25:05;;;;;;;8.33;4.70;;;;;;;4.90;100.00;99987.58;1779835;80;21058;-77
2022/10/19 04:27:32;;;;;;;9.43;4.33;;;;;;;4.91;100.00;99975.39;1779469;80;20995;-77
2022/10/19 04:29:59;;;;;;;9.73;4.40;;;;;;;4.94;100.00;99974.29;1779870;80;21020;-76
2022/10/19 04:32:26;;;;;;;13.57;5.33;;;;;;;4.99;100.00;99968.00;1779506;80;21046;-76
2022/10/19 04:34:52;;;;;;;12.33;5.03;;;;;;;5.02;100.00;99970.41;1780060;79;21059;-78
2022/10/19 04:41:37;;;;;;;12.63;4.93;;;;;;;5.08;100.00;99964.98;1779949;80;21046;-77
2022/10/19 04:44:07;;;;;;;12.13;5.07;;;;;;;5.08;100.00;99955.14;1779513;80;21457;-77
2022/10/19 04:46:34;;;;;;;13.13;5.33;;;;;;;5.08;100.00;99952.93;1779445;79;20979;-77
2022/10/19 04:49:03;;;;;;;12.47;4.57;;;;;;;5.11;100.00;99944.62;1743592;82;21050;-77
2022/10/19 04:51:30;;;;;;;12.77;4.87;;;;;;;5.16;100.00;99940.20;1743745;82;21002;-76
2022/10/19 04:53:57;;;;;;;9.27;4.40;;;;;;;5.20;100.00;99934.91;1743581;82;21062;-78
2022/10/19 04:56:26;;;;;;;9.20;4.47;;;;;;;5.23;100.00;99927.93;1743997;82;21825;-76
2022/10/19 04:58:56;;;;;;;13.30;5.50;;;;;;;5.28;100.00;99929.20;1743744;82;20959;-76
2022/10/19 05:01:24;;;;;;;10.53;4.80;;;;;;;5.34;100.00;99922.43;1779518;79;20994;-77
2022/10/19 05:03:56;;;;;;;14.00;5.70;;;;;;;5.41;100.00;99920.04;1780416;80;21450;-77
2022/10/19 05:06:23;;;;;;;12.47;5.23;;;;;;;5.47;100.00;99925.70;1779582;80;21050;-75
2022/10/19 05:08:50;;;;;;;9.63;4.50;;;;;;;5.53;100.00;99916.23;1780011;80;20972;-76
2022/10/19 05:11:17;;;;;;;13.13;6.17;;;;;;;5.60;100.00;99912.49;1743826;82;21516;-75
2022/10/19 05:13:45;;;;;;;10.97;4.70;;;;;;;5.68;100.00;99897.38;1778933;80;21058;-75
2022/10/19 05:16:15;;;;;;;13.73;4.80;;;;;;;5.77;100.00;99888.09;1743156;82;20966;-74
2022/10/19 05:18:58;;;;;;;12.23;4.63;;;;;;;5.86;100.00;99885.89;1743396;81;21515;-75
2022/10/19 05:21:28;;;;;;;11.00;4.90;;;;;;;5.97;100.00;99875.54;1733348;81;21520;-74
2022/10/19 05:23:55;;;;;;;14.57;6.17;;;;;;;6.07;100.00;99870.48;1727016;82;21492;-76
2022/10/19 05:26:24;;;;;;;12.57;5.37;;;;;;;6.16;100.00;99871.45;1727169;83;21010;-75
2022/10/19 05:28:56;;;;;;;10.83;5.10;;;;;;;6.24;100.00;99864.83;1727881;83;20990;-71
2022/10/19 05:31:32;;;;;;;9.25;4.92;;;;;;;6.36;100.00;99868.19;1728081;83;21059;-76
2022/10/19 05:33:59;;;;;;;11.57;5.80;;;;;;;6.44;100.00;99864.23;1727697;83;21024;-75
2022/10/19 05:36:33;;;;;;;14.63;8.07;;;;;;;6.56;100.00;99869.44;1730993;83;21524;-77
2022/10/19 05:39:02;;;;;;;13.83;6.17;;;;;;;6.65;100.00;99859.13;1677997;84;21066;-78
2022/10/19 05:41:30;;;;;;;17.45;7.00;;;;;;;6.75;100.00;99851.02;1567613;90;21058;-74
2022/10/19 05:44:00;;;;;;;16.57;6.80;;;;;;;6.82;100.00;99842.19;1595423;88;21079;-73
2022/10/19 05:46:28;;;;;;;23.57;8.03;;;;;;;6.87;100.00;99836.85;1627938;88;21032;-75
2022/10/19 05:48:56;;;;;;;20.07;8.43;;;;;;;6.90;100.00;99836.05;1627546;88;21104;-73
2022/10/19 05:51:23;;;;;;;16.57;7.23;;;;;;;6.92;100.00;99830.52;1627796;88;21546;-76
2022/10/19 05:53:51;;;;;;;14.47;6.47;;;;;;;6.95;100.00;99824.84;1627631;88;21156;-77
2022/10/19 05:56:21;;;;;;;16.03;6.33;;;;;;;7.01;100.00;99821.05;1627794;88;21084;-79
2022/10/19 05:58:49;;;;;;;12.27;5.63;;;;;;;7.08;100.00;99811.02;1612697;88;21122;-74
2022/10/19 06:01:20;;;;;;;9.97;5.70;;;;;;;7.16;100.00;99813.79;1611987;88;21579;-74
2022/10/19 06:03:49;;;;;;;12.53;5.10;;;;;;;7.23;100.00;99806.79;1611465;88;21058;-76
2022/10/19 06:06:16;;;;;;;12.67;5.27;;;;;;;7.36;100.00;99809.08;1584633;89;21138;-75
2022/10/19 06:08:42;;;;;;;13.33;5.23;;;;;;;7.49;100.00;99794.73;1586952;89;21542;-76
2022/10/19 06:11:13;;;;;;;11.07;5.57;;;;;;;7.65;100.00;99789.09;1587403;89;21027;-78
2022/10/19 06:13:41;;;;;;;14.97;5.50;;;;;;;7.83;100.00;99783.68;1606976;89;21010;-73
2022/10/19 06:16:08;;;;;;;10.30;5.60;;;;;;;8.01;100.00;99775.52;1607549;88;21118;-74
2022/10/19 06:18:36;;;;;;;10.93;5.10;;;;;;;8.17;100.00;99770.20;1611520;88;21140;-74
2022/10/19 06:21:05;;;;;;;10.10;5.00;;;;;;;8.30;100.00;99767.88;1616563;89;21157;-75
2022/10/19 06:23:34;;;;;;;16.03;6.50;;;;;;;8.47;100.00;99769.33;1618830;88;21171;-73
2022/10/19 06:26:10;;;;;;;13.03;6.00;;;;;;;8.69;100.00;99761.98;1617945;89;21126;-75
2022/10/19 06:28:38;;;;;;;16.20;5.92;;;;;;;8.94;100.00;99759.28;1618779;88;21054;-75
2022/10/19 06:31:05;;;;;;;9.48;5.08;;;;;;;9.21;100.00;99750.55;1618365;89;21630;-75
2022/10/19 06:33:32;;;;;;;17.07;7.65;;;;;;;9.51;100.00;99753.05;1618653;88;21126;-74
2022/10/19 06:36:14;;;;;;;8.73;4.87;;;;;;;9.77;100.00;99754.16;1635595;87;21111;-76
2022/10/19 06:38:42;;;;;;;12.35;4.40;;;;;;;10.04;100.00;99749.37;1716946;80;21017;-75
2022/10/19 06:41:10;;;;;;;11.18;5.00;;;;;;;10.31;100.00;99741.81;1776798;79;21403;-75
2022/10/19 06:43:37;;;;;;;31.90;10.60;;;;;;;10.52;100.00;99739.36;1781101;80;21038;-71
2022/10/19 06:46:11;;;;;;;17.75;7.80;;;;;;;10.71;100.00;99738.07;1781466;80;21004;-76
2022/10/19 06:48:37;;;;;;;;;;;;;;;10.94;100.00;99743.97;1696951;83;21479;-75
2022/10/19 06:51:54;;;;;;;36.93;19.48;;;;;;;11.21;100.00;99732.59;1678639;84;20151;-75
2022/10/19 06:54:20;;;;;;;10.63;5.47;;;;;;;11.51;100.00;99731.30;1677022;85;20969;-74
2022/10/19 06:56:47;;;;;;;7.83;4.50;;;;;;;11.80;100.00;99731.52;1699032;84;21071;-75
2022/10/19 06:59:16;;;;;;;10.63;4.53;;;;;;;11.96;100.00;99742.19;1703486;83;21528;-73
2022/10/19 07:01:44;;;;;;;11.50;4.55;;;;;;;12.12;100.00;99741.15;1721847;83;21061;-74
2022/10/19 07:04:10;;;;;;;9.18;4.58;;;;;;;12.32;100.00;99753.59;1721864;83;21006;-74
2022/10/19 07:06:38;;;;;;;9.95;4.70;;;;;;;12.49;100.00;99750.16;1721774;83;21061;-75
2022/10/19 07:09:04;;;;;;;9.90;4.65;;;;;;;12.60;100.00;99759.14;1721336;82;21081;-76
2022/10/19 07:11:34;;;;;;;10.70;4.10;;;;;;;12.72;100.00;99768.46;1721579;83;21484;-74
2022/10/19 07:14:01;;;;;;;9.70;5.10;;;;;;;12.92;100.00;99765.13;1721603;83;21539;-76
2022/10/19 07:16:29;;;;;;;7.15;4.20;;;;;;;13.13;100.00;99768.89;1721679;83;21037;-75
2022/10/19 07:18:57;;;;;;;7.25;4.17;;;;;;;13.35;100.00;99765.66;1721580;83;21033;-74
2022/10/19 07:21:25;;;;;;;8.45;4.40;;;;;;;13.55;100.00;99768.03;1643785;84;21058;-74
2022/10/19 07:23:51;;;;;;;10.10;4.87;;;;;;;13.70;100.00;99763.84;1710910;84;21014;-73
2022/10/19 07:26:26;;;;;;;9.78;4.72;;;;;;;13.86;100.00;99770.84;1679016;84;21495;-74
2022/10/19 07:28:55;;;;;;;12.63;5.72;;;;;;;13.99;100.00;99760.07;1676734;85;21556;-74
2022/10/19 07:31:23;;;;;;;13.78;5.17;;;;;;;14.09;100.00;99768.38;1671167;85;21496;-75
2022/10/19 07:33:54;;;;;;;10.53;4.67;;;;;;;14.21;100.00;99770.31;1672095;85;21082;-72
2022/10/19 07:36:21;;;;;;;93.35;47.62;;;;;;;14.24;100.00;99767.73;1656155;85;21102;-75
2022/10/19 07:38:48;;;;;;;12.60;6.30;;;;;;;14.22;100.00;99776.09;1678256;85;21110;-75
2022/10/19 07:41:18;;;;;;;9.65;4.53;;;;;;;14.32;100.00;99762.11;1676380;85;21028;-73
2022/10/19 07:43:45;;;;;;;9.43;4.70;;;;;;;14.43;100.00;99764.80;1677745;85;21015;-74
2022/10/19 07:46:18;;;;;;;9.35;4.75;;;;;;;14.44;100.00;99767.81;1723798;82;21052;-79
2022/10/19 07:48:47;;;;;;;7.83;4.22;;;;;;;14.49;100.00;99765.86;1764448;80;21021;-74
2022/10/19 07:51:15;;;;;;;8.03;4.20;;;;;;;14.63;100.00;99759.98;1746407;80;21025;-78
2022/10/19 07:53:41;;;;;;;8.18;4.37;;;;;;;14.68;100.00;99767.84;1751857;80;21437;-77
2022/10/19 07:56:10;;;;;;;7.17;4.12;;;;;;;14.61;100.00;99771.06;1745518;82;21045;-75
2022/10/19 07:58:37;;;;;;;12.93;4.50;;;;;;;14.68;100.00;99758.81;1738055;82;21026;-75
2022/10/19 08:01:13;;;;;;;13.13;5.12;;;;;;;14.95;100.00;99756.48;1723365;82;21104;-75
2022/10/19 08:03:44;;;;;;;9.68;4.75;;;;;;;15.21;100.00;99758.09;1720238;82;21040;-75
2022/10/19 08:06:15;;;;;;;11.33;4.70;;;;;;;15.45;100.00;99768.37;1738506;80;21466;-72
2022/10/19 08:08:45;;;;;;;6.05;3.92;;;;;;;15.62;100.00;99766.60;1693577;83;21100;-74
2022/10/19 08:11:23;;;;;;;7.37;3.92;;;;;;;15.74;100.00;99768.50;1732054;80;21073;-76
2022/10/19 08:13:51;;;;;;;8.95;4.28;;;;;;;15.73;100.00;99774.13;1698858;82;21034;-71
2022/10/19 08:16:36;;;;;;;8.35;4.30;;;;;;;15.54;100.00;99767.63;1712063;82;21122;-74
2022/10/19 08:19:09;;;;;;;9.23;4.40;;;;;;;15.52;100.00;99762.39;1706350;82;21027;-76
2022/10/19 08:21:36;;;;;;;7.00;4.20;;;;;;;15.55;100.00;99763.88;1689059;83;21064;-73
2022/10/19 08:24:09;;;;;;;6.00;3.85;;;;;;;15.71;100.00;99763.97;1655949;86;21580;-73
2022/10/19 08:26:38;;;;;;;7.58;4.12;;;;;;;15.83;100.00;99762.80;1608466;88;21165;-73
2022/10/19 08:29:17;;;;;;;6.83;3.47;;;;;;;15.96;100.00;99750.53;1599746;89;20992;-73
2022/10/19 08:31:45;;;;;;;3.75;2.67;;;;;;;16.03;100.00;99758.16;1593081;89;21843;-75
2022/10/19 08:34:12;;;;;;;5.03;2.90;;;;;;;16.07;100.00;99767.58;1593140;89;21061;-79
2022/10/19 08:36:39;;;;;;;7.35;2.40;;;;;;;16.11;100.00;99766.13;1603515;88;20995;-74
2022/10/19 08:39:08;;;;;;;7.62;3.30;;;;;;;16.21;100.00;99758.84;1595863;89;21030;-74
2022/10/19 08:41:40;;;;;;;7.75;4.03;;;;;;;16.34;100.00;99752.49;1594927;89;21047;-76
2022/10/19 08:44:46;;;;;;;30.97;13.43;;;;;;;16.86;100.00;99723.30;1597778;89;21028;-74
2022/10/19 08:47:33;;;;;;;21.17;10.03;;;;;;;16.86;100.00;99723.30;1583959;89;21838;-73
2022/10/19 08:50:00;;;;;;;8.93;3.95;;;;;;;17.11;100.00;99726.59;1597814;89;21028;-74
2022/10/19 08:52:30;;;;;;;18.73;6.50;;;;;;;17.14;100.00;99731.62;1566376;90;21066;-74
2022/10/19 08:55:01;;;;;;;21.42;6.95;;;;;;;17.04;100.00;99723.07;1583427;89;21044;-75
2022/10/19 08:58:01;;;;;;;13.00;4.03;;;;;;;17.05;100.00;99728.83;1576506;89;21092;-75
2022/10/19 09:00:43;;;;;;;23.83;7.95;;;;;;;17.14;100.00;99730.76;1575204;91;21092;-76
2022/10/19 09:03:37;;;;;;;9.10;3.70;;;;;;;17.32;100.00;99724.02;1541930;92;21145;-76
2022/10/19 09:06:19;;;;;;;13.45;5.85;;;;;;;17.53;100.00;99720.55;1563110;92;21117;-75
2022/10/19 09:08:44;;;;;;;7.42;3.70;;;;;;;17.72;100.00;99718.16;1562332;92;21220;-78
2022/10/19 09:11:11;;;;;;;16.62;6.97;;;;;;;17.60;100.00;99726.80;1579731;90;21140;-80
2022/10/19 09:13:44;;;;;;;11.30;4.47;;;;;;;17.59;100.00;99725.97;1587491;90;21177;-75
2022/10/19 09:16:14;;;;;;;6.50;2.90;;;;;;;17.82;100.00;99728.59;1628431;88;21543;-75
2022/10/19 09:18:43;;;;;;;4.15;2.30;;;;;;;18.01;100.00;99732.22;1611603;87;21594;-78
2022/10/19 09:21:15;;;;;;;10.05;2.30;;;;;;;18.02;100.00;99731.99;1661153;85;21070;-78
2022/10/19 09:23:50;;;;;;;2.00;1.85;;;;;;;18.01;100.00;99725.38;1661973;86;21626;-73
2022/10/19 09:26:21;;;;;;;1.50;1.40;;;;;;;18.04;100.00;99723.53;1662288;86;21037;-77
2022/10/19 09:28:58;;;;;;;5.47;2.83;;;;;;;18.03;100.00;99721.88;1663161;85;21217;-79
2022/10/19 09:31:32;;;;;;;3.50;1.82;;;;;;;18.05;100.00;99737.53;1632105;87;21184;-74
2022/10/19 09:34:04;;;;;;;5.10;2.00;;;;;;;18.10;100.00;99724.55;1631291;87;21141;-75
2022/10/19 09:36:39;;;;;;;9.43;2.02;;;;;;;18.17;100.00;99720.66;1567376;91;21189;-76
2022/10/19 09:39:06;;;;;;;2.75;1.50;;;;;;;18.25;100.00;99706.36;1567463;91;21122;-76
2022/10/19 09:41:34;;;;;;;3.10;2.20;;;;;;;18.22;100.00;99706.30;1528730;91;21114;-71
2022/10/19 09:44:00;;;;;;;3.70;2.00;;;;;;;18.19;100.00;99702.65;1554524;91;21016;-73
2022/10/19 09:46:47;;;;;;;5.58;2.85;;;;;;;18.20;100.00;99698.31;1543064;92;21110;-76
2022/10/19 09:49:13;;;;;;;3.58;2.17;;;;;;;18.24;100.00;99699.20;1547261;92;21070;-75
2022/10/19 09:51:51;;;;;;;11.68;5.22;;;;;;;18.27;100.00;99697.38;1546384;92;21088;-75
2022/10/19 09:54:35;;;;;;;11.18;4.03;;;;;;;18.29;100.00;99693.88;1546647;92;21051;-79
2022/10/19 09:57:03;;;;;;;3.55;2.15;;;;;;;18.34;100.00;99693.52;1523276;93;21051;-73
2022/10/19 09:59:35;;;;;;;6.00;2.60;;;;;;;18.31;100.00;99684.91;1624632;84;21532;-73
2022/10/19 10:02:15;;;;;;;5.20;2.20;;;;;;;18.23;100.00;99677.85;1685608;85;21015;-73
2022/10/19 10:04:58;;;;;;;6.97;2.35;;;;;;;18.20;100.00;99687.38;1685258;85;21511;-73
2022/10/19 10:07:27;;;;;;;4.28;2.65;;;;;;;18.24;100.00;99676.80;1618395;87;21143;-72
2022/10/19 10:09:53;;;;;;;4.83;2.35;;;;;;;18.32;100.00;99668.25;1619206;87;21563;-73
2022/10/19 10:12:20;;;;;;;5.95;2.77;;;;;;;18.44;100.00;99667.48;1639014;87;21015;-75
2022/10/19 10:14:48;;;;;;;6.28;2.35;;;;;;;18.53;100.00;99661.98;1595635;87;21058;-72
2022/10/19 10:17:20;;;;;;;2.60;2.37;;;;;;;18.54;100.00;99665.86;1639058;87;21002;-73
2022/10/19 10:20:02;;;;;;;4.15;2.92;;;;;;;18.54;100.00;99657.65;1617358;87;21564;-74
2022/10/19 10:22:32;;;;;;;;;;;;;;;18.57;100.00;99666.77;1631614;87;21122;-75
2022/10/19 10:24:59;;;;;;;5.67;3.05;;;;;;;18.57;100.00;99661.30;1629484;88;20483;-77
2022/10/19 10:27:35;;;;;;;5.33;2.90;;;;;;;18.64;100.00;99658.98;1629720;88;21016;-76
2022/10/19 10:30:06;;;;;;;3.77;2.70;;;;;;;18.66;100.00;99650.85;1562854;91;21040;-72
2022/10/19 10:32:37;;;;;;;21.23;5.12;;;;;;;18.71;100.00;99651.50;1564444;87;21561;-74
2022/10/19 10:35:11;;;;;;;13.03;4.53;;;;;;;18.80;100.00;99654.19;1645258;86;21595;-76
2022/10/19 10:37:43;;;;;;;14.40;4.47;;;;;;;18.84;100.00;99636.78;1567297;91;21610;-76
2022/10/19 10:40:27;;;;;;;12.23;4.20;;;;;;;18.94;100.00;99641.16;1574028;90;21102;-76
2022/10/19 10:43:08;;;;;;;10.93;4.90;;;;;;;18.93;100.00;99632.12;1571708;91;21112;-73
2022/10/19 10:45:45;;;;;;;11.63;4.80;;;;;;;18.87;100.00;99624.82;1557196;91;21097;-73
2022/10/19 10:48:27;;;;;;;16.05;6.25;;;;;;;18.82;100.00;99612.91;1548142;92;21148;-72
2022/10/19 10:50:56;;;;;;;15.53;5.50;;;;;;;18.83;100.00;99620.89;1553785;92;21068;-72
2022/10/19 10:53:38;;;;;;;10.93;4.37;;;;;;;18.89;100.00;99606.27;1555201;92;21072;-71
2022/10/19 10:56:28;;;;;;;6.78;3.70;;;;;;;18.97;100.00;99603.70;1555522;92;21060;-71
2022/10/19 10:59:08;;;;;;;8.80;3.10;;;;;;;18.93;100.00;99608.00;1547383;92;21894;-73
2022/10/19 11:01:48;;;;;;;47.95;28.57;;;;;;;18.90;100.00;99603.81;1558176;92;21139;-70
2022/10/19 11:04:24;;;;;;;21.10;12.93;;;;;;;19.02;100.00;99587.94;1534118;93;21118;-71
2022/10/19 11:07:00;;;;;;;7.47;4.75;;;;;;;19.19;100.00;99587.50;1539477;93;21611;-73
2022/10/19 11:09:40;;;;;;;11.55;4.90;;;;;;;19.34;100.00;99590.59;1537180;93;21106;-75
2022/10/19 11:12:11;;;;;;;6.35;3.67;;;;;;;19.51;100.00;99589.34;1537076;93;21647;-73
2022/10/19 11:14:56;;;;;;;6.65;3.10;;;;;;;19.65;100.00;99583.58;1564561;88;21133;-74
2022/10/19 11:17:31;;;;;;;8.45;3.50;;;;;;;19.73;100.00;99576.36;1606702;89;21579;-73
2022/10/19 11:19:57;;;;;;;20.15;4.28;;;;;;;19.83;100.00;99575.75;1606884;89;21069;-74
2022/10/19 11:22:33;;;;;;;9.80;4.12;;;;;;;19.90;100.00;99574.55;1614829;88;21124;-73
2022/10/19 11:25:25;;;;;;;9.68;4.28;;;;;;;19.74;100.00;99569.80;1589024;90;21024;-73
2022/10/19 11:28:35;;;;;;;14.18;5.40;;;;;;;19.58;100.00;99564.51;1643679;87;21514;-71
2022/10/19 11:31:24;;;;;;;11.50;5.00;;;;;;;19.51;100.00;99559.18;1576676;91;21052;-74
2022/10/19 11:34:23;;;;;;;13.65;6.30;;;;;;;19.40;100.00;99560.56;1559173;92;21084;-72
2022/10/19 11:37:11;;;;;;;11.00;5.12;;;;;;;19.31;100.00;99552.70;1561511;90;21584;-73
2022/10/19 11:40:24;;;;;;;11.90;4.53;;;;;;;19.10;100.00;99551.95;1561394;92;21139;-71
2022/10/19 11:43:05;;;;;;;11.90;5.05;;;;;;;18.97;100.00;99555.22;1561619;92;21098;-74
2022/10/19 11:45:53;;;;;;;10.70;5.55;;;;;;;19.10;100.00;99562.36;1561505;92;21117;-73
2022/10/19 11:48:50;;;;;;;12.60;5.65;;;;;;;19.24;100.00;99549.80;1575912;91;21068;-74
2022/10/19 11:51:35;;;;;;;11.88;4.70;;;;;;;19.31;100.00;99548.59;1526720;91;21133;-72